sensor_id;sensor_type;location;lat;lon;timestamp;pressure;altitude;pressure_sealevel;temperature;humidity
72612;BME280;60655;52.182;4.474;2023-04-08T00:00:32;102350.53;;;10.06;88.32
72612;BME280;60655;52.182;4.474;2023-04-08T00:02:33;102347.44;;;9.95;87.68
72612;BME280;60655;52.182;4.474;2023-04-08T00:04:34;102341.56;;;10.07;88.07
72612;BME280;60655;52.182;4.474;2023-04-08T00:06:35;102344.78;;;10.18;88.14
72612;BME280;60655;52.182;4.474;2023-04-08T00:08:37;102357.22;;;10.25;87.91
72612;BME280;60655;52.182;4.474;2023-04-08T00:10:37;102357.94;;;10.19;88.74
72612;BME280;60655;52.182;4.474;2023-04-08T00:12:38;102356.00;;;10.36;88.54
72612;BME280;60655;52.182;4.474;2023-04-08T00:14:40;102357.59;;;10.14;88.09
72612;BME280;60655;52.182;4.474;2023-04-08T00:16:41;102351.63;;;10.12;89.09
72612;BME280;60655;52.182;4.474;2023-04-08T00:18:42;102351.09;;;10.25;88.62
72612;BME280;60655;52.182;4.474;2023-04-08T00:20:43;102343.31;;;10.15;88.98
72612;BME280;60655;52.182;4.474;2023-04-08T00:22:44;102322.97;;;10.07;89.08
72612;BME280;60655;52.182;4.474;2023-04-08T00:24:45;102340.00;;;10.21;88.70
72612;BME280;60655;52.182;4.474;2023-04-08T00:26:46;102344.41;;;10.29;88.57
72612;BME280;60655;52.182;4.474;2023-04-08T00:28:47;102347.78;;;10.23;88.51
72612;BME280;60655;52.182;4.474;2023-04-08T00:30:48;102351.69;;;10.04;89.17
72612;BME280;60655;52.182;4.474;2023-04-08T00:32:49;102354.09;;;10.22;89.79
72612;BME280;60655;52.182;4.474;2023-04-08T00:34:50;102351.44;;;10.22;89.42
72612;BME280;60655;52.182;4.474;2023-04-08T00:36:52;102360.59;;;10.11;89.88
72612;BME280;60655;52.182;4.474;2023-04-08T00:38:55;102359.41;;;10.22;89.61
72612;BME280;60655;52.182;4.474;2023-04-08T00:40:56;102351.19;;;10.08;89.82
72612;BME280;60655;52.182;4.474;2023-04-08T00:42:58;102358.75;;;10.11;89.92
72612;BME280;60655;52.182;4.474;2023-04-08T00:44:58;102352.44;;;10.12;89.99
72612;BME280;60655;52.182;4.474;2023-04-08T00:47:00;102348.78;;;10.13;89.63
72612;BME280;60655;52.182;4.474;2023-04-08T00:49:01;102356.25;;;10.18;89.46
72612;BME280;60655;52.182;4.474;2023-04-08T00:51:03;102357.94;;;10.11;90.17
72612;BME280;60655;52.182;4.474;2023-04-08T00:53:04;102359.88;;;10.25;89.98
72612;BME280;60655;52.182;4.474;2023-04-08T00:55:05;102362.88;;;10.22;89.76
72612;BME280;60655;52.182;4.474;2023-04-08T00:57:06;102336.81;;;9.95;90.24
72612;BME280;60655;52.182;4.474;2023-04-08T00:59:08;102366.53;;;10.21;90.08
72612;BME280;60655;52.182;4.474;2023-04-08T01:01:14;102359.16;;;10.08;90.11
72612;BME280;60655;52.182;4.474;2023-04-08T01:03:34;102366.72;;;10.11;90.31
72612;BME280;60655;52.182;4.474;2023-04-08T01:05:50;102361.19;;;9.98;89.82
72612;BME280;60655;52.182;4.474;2023-04-08T01:07:58;102340.63;;;9.92;89.33
72612;BME280;60655;52.182;4.474;2023-04-08T01:10:08;102361.75;;;9.86;90.29
72612;BME280;60655;52.182;4.474;2023-04-08T01:12:18;102343.81;;;9.88;90.64
72612;BME280;60655;52.182;4.474;2023-04-08T01:14:25;102351.34;;;9.76;91.01
72612;BME280;60655;52.182;4.474;2023-04-08T01:16:27;102338.25;;;9.74;91.40
72612;BME280;60655;52.182;4.474;2023-04-08T01:18:29;102349.47;;;9.85;91.37
72612;BME280;60655;52.182;4.474;2023-04-08T01:20:31;102341.06;;;9.81;91.23
72612;BME280;60655;52.182;4.474;2023-04-08T01:22:49;102365.88;;;9.88;91.63
72612;BME280;60655;52.182;4.474;2023-04-08T01:25:00;102371.19;;;9.88;91.51
72612;BME280;60655;52.182;4.474;2023-04-08T01:27:03;102363.69;;;9.92;91.24
72612;BME280;60655;52.182;4.474;2023-04-08T01:29:06;102360.34;;;9.98;91.34
72612;BME280;60655;52.182;4.474;2023-04-08T01:31:08;102368.19;;;9.91;91.15
72612;BME280;60655;52.182;4.474;2023-04-08T01:33:11;102368.84;;;9.93;91.52
72612;BME280;60655;52.182;4.474;2023-04-08T01:35:14;102345.16;;;9.83;91.45
72612;BME280;60655;52.182;4.474;2023-04-08T01:37:16;102359.53;;;9.97;91.09
72612;BME280;60655;52.182;4.474;2023-04-08T01:39:18;102368.28;;;10.06;90.95
72612;BME280;60655;52.182;4.474;2023-04-08T01:41:21;102370.75;;;10.07;90.93
72612;BME280;60655;52.182;4.474;2023-04-08T01:43:23;102366.03;;;9.87;91.69
72612;BME280;60655;52.182;4.474;2023-04-08T01:45:25;102372.50;;;9.92;91.73
72612;BME280;60655;52.182;4.474;2023-04-08T01:47:26;102354.44;;;9.88;91.54
72612;BME280;60655;52.182;4.474;2023-04-08T01:49:29;102359.25;;;9.84;91.34
72612;BME280;60655;52.182;4.474;2023-04-08T01:51:30;102374.63;;;9.97;91.48
72612;BME280;60655;52.182;4.474;2023-04-08T01:53:32;102347.59;;;9.93;90.61
72612;BME280;60655;52.182;4.474;2023-04-08T01:55:33;102350.59;;;9.90;90.72
72612;BME280;60655;52.182;4.474;2023-04-08T01:57:36;102377.94;;;9.99;90.80
72612;BME280;60655;52.182;4.474;2023-04-08T01:59:39;102368.59;;;9.80;90.92
72612;BME280;60655;52.182;4.474;2023-04-08T02:01:42;102368.41;;;9.81;91.10
72612;BME280;60655;52.182;4.474;2023-04-08T02:03:45;102365.94;;;9.80;90.81
72612;BME280;60655;52.182;4.474;2023-04-08T02:05:48;102371.59;;;9.77;91.32
72612;BME280;60655;52.182;4.474;2023-04-08T02:07:49;102374.53;;;9.82;90.96
72612;BME280;60655;52.182;4.474;2023-04-08T02:09:50;102367.03;;;9.86;90.41
72612;BME280;60655;52.182;4.474;2023-04-08T02:11:51;102372.00;;;9.89;90.37
72612;BME280;60655;52.182;4.474;2023-04-08T02:13:52;102370.41;;;9.79;90.58
72612;BME280;60655;52.182;4.474;2023-04-08T02:16:02;102368.44;;;9.73;90.98
72612;BME280;60655;52.182;4.474;2023-04-08T02:18:13;102370.03;;;9.82;90.90
72612;BME280;60655;52.182;4.474;2023-04-08T02:20:25;102366.56;;;9.82;90.63
72612;BME280;60655;52.182;4.474;2023-04-08T02:25:03;102370.94;;;9.75;90.89
72612;BME280;60655;52.182;4.474;2023-04-08T02:27:07;102364.00;;;9.66;91.21
72612;BME280;60655;52.182;4.474;2023-04-08T02:29:13;102375.41;;;9.74;91.06
72612;BME280;60655;52.182;4.474;2023-04-08T02:31:16;102364.00;;;9.66;91.12
72612;BME280;60655;52.182;4.474;2023-04-08T02:33:20;102366.47;;;9.67;91.49
72612;BME280;60655;52.182;4.474;2023-04-08T02:35:21;102367.13;;;9.69;91.37
72612;BME280;60655;52.182;4.474;2023-04-08T02:37:23;102382.38;;;9.75;91.41
72612;BME280;60655;52.182;4.474;2023-04-08T02:39:31;102382.22;;;9.69;91.37
72612;BME280;60655;52.182;4.474;2023-04-08T02:41:32;102377.72;;;9.77;91.41
72612;BME280;60655;52.182;4.474;2023-04-08T02:43:33;102388.84;;;9.73;91.59
72612;BME280;60655;52.182;4.474;2023-04-08T02:45:40;102389.56;;;9.59;92.31
72612;BME280;60655;52.182;4.474;2023-04-08T02:47:41;102378.41;;;9.71;91.76
72612;BME280;60655;52.182;4.474;2023-04-08T02:49:42;102391.81;;;9.78;91.02
72612;BME280;60655;52.182;4.474;2023-04-08T02:51:43;102377.94;;;9.60;91.59
72612;BME280;60655;52.182;4.474;2023-04-08T02:53:44;102388.84;;;9.73;91.71
72612;BME280;60655;52.182;4.474;2023-04-08T02:55:45;102394.47;;;9.78;91.32
72612;BME280;60655;52.182;4.474;2023-04-08T02:57:47;102393.84;;;9.68;91.47
72612;BME280;60655;52.182;4.474;2023-04-08T02:59:48;102362.59;;;9.47;91.42
72612;BME280;60655;52.182;4.474;2023-04-08T03:01:49;102400.28;;;9.73;91.23
72612;BME280;60655;52.182;4.474;2023-04-08T03:03:50;102393.31;;;9.72;90.78
72612;BME280;60655;52.182;4.474;2023-04-08T03:05:51;102405.78;;;9.64;90.86
72612;BME280;60655;52.182;4.474;2023-04-08T03:07:53;102389.22;;;9.54;91.34
72612;BME280;60655;52.182;4.474;2023-04-08T03:09:54;102403.97;;;9.56;91.54
72612;BME280;60655;52.182;4.474;2023-04-08T03:11:55;102375.19;;;9.45;91.15
72612;BME280;60655;52.182;4.474;2023-04-08T03:13:56;102398.16;;;9.61;91.08
72612;BME280;60655;52.182;4.474;2023-04-08T03:15:57;102390.56;;;9.58;90.23
72612;BME280;60655;52.182;4.474;2023-04-08T03:18:00;102402.13;;;9.73;89.93
72612;BME280;60655;52.182;4.474;2023-04-08T03:20:01;102402.16;;;9.57;90.63
72612;BME280;60655;52.182;4.474;2023-04-08T03:22:04;102380.84;;;9.42;90.77
72612;BME280;60655;52.182;4.474;2023-04-08T03:24:05;102395.03;;;9.57;90.20
72612;BME280;60655;52.182;4.474;2023-04-08T03:26:06;102410.94;;;9.57;90.11
72612;BME280;60655;52.182;4.474;2023-04-08T03:28:07;102409.13;;;9.58;89.97
72612;BME280;60655;52.182;4.474;2023-04-08T03:30:08;102402.88;;;9.51;90.16
72612;BME280;60655;52.182;4.474;2023-04-08T03:32:09;102404.03;;;9.40;90.60
72612;BME280;60655;52.182;4.474;2023-04-08T03:34:10;102406.69;;;9.40;90.92
72612;BME280;60655;52.182;4.474;2023-04-08T03:36:11;102405.38;;;9.36;90.48
72612;BME280;60655;52.182;4.474;2023-04-08T03:38:12;102392.78;;;9.30;90.33
72612;BME280;60655;52.182;4.474;2023-04-08T03:40:13;102409.34;;;9.48;89.95
72612;BME280;60655;52.182;4.474;2023-04-08T03:42:33;102415.81;;;9.29;90.06
72612;BME280;60655;52.182;4.474;2023-04-08T03:44:34;102409.38;;;9.32;90.40
72612;BME280;60655;52.182;4.474;2023-04-08T03:46:35;102407.88;;;9.29;90.10
72612;BME280;60655;52.182;4.474;2023-04-08T03:48:36;102416.00;;;9.28;89.85
72612;BME280;60655;52.182;4.474;2023-04-08T03:50:37;102421.66;;;9.17;89.60
72612;BME280;60655;52.182;4.474;2023-04-08T03:52:38;102415.88;;;9.13;89.75
72612;BME280;60655;52.182;4.474;2023-04-08T03:54:39;102424.47;;;9.15;89.24
72612;BME280;60655;52.182;4.474;2023-04-08T03:56:40;102434.75;;;9.18;88.83
72612;BME280;60655;52.182;4.474;2023-04-08T03:58:42;102433.25;;;9.07;88.94
72612;BME280;60655;52.182;4.474;2023-04-08T04:00:43;102434.75;;;9.02;89.27
72612;BME280;60655;52.182;4.474;2023-04-08T04:02:44;102429.13;;;8.89;89.79
72612;BME280;60655;52.182;4.474;2023-04-08T04:04:45;102434.78;;;8.94;90.00
72612;BME280;60655;52.182;4.474;2023-04-08T04:06:45;102438.25;;;8.94;89.61
72612;BME280;60655;52.182;4.474;2023-04-08T04:08:46;102438.06;;;8.96;89.29
72612;BME280;60655;52.182;4.474;2023-04-08T04:10:47;102436.75;;;8.92;89.39
72612;BME280;60655;52.182;4.474;2023-04-08T04:12:48;102440.56;;;8.89;89.22
72612;BME280;60655;52.182;4.474;2023-04-08T04:14:49;102411.41;;;8.73;89.14
72612;BME280;60655;52.182;4.474;2023-04-08T04:16:50;102440.72;;;8.88;88.82
72612;BME280;60655;52.182;4.474;2023-04-08T04:18:52;102445.69;;;8.74;89.30
72612;BME280;60655;52.182;4.474;2023-04-08T04:20:53;102448.31;;;8.66;89.95
72612;BME280;60655;52.182;4.474;2023-04-08T04:22:54;102448.00;;;8.69;89.74
72612;BME280;60655;52.182;4.474;2023-04-08T04:24:55;102452.78;;;8.58;89.11
72612;BME280;60655;52.182;4.474;2023-04-08T04:26:55;102450.16;;;8.58;89.71
72612;BME280;60655;52.182;4.474;2023-04-08T04:28:56;102444.16;;;8.48;88.96
72612;BME280;60655;52.182;4.474;2023-04-08T04:30:57;102454.78;;;8.56;88.94
72612;BME280;60655;52.182;4.474;2023-04-08T04:32:58;102461.72;;;8.49;89.15
72612;BME280;60655;52.182;4.474;2023-04-08T04:34:59;102464.00;;;8.43;88.93
72612;BME280;60655;52.182;4.474;2023-04-08T04:37:00;102451.19;;;8.23;88.61
72612;BME280;60655;52.182;4.474;2023-04-08T04:39:02;102466.16;;;8.40;88.71
72612;BME280;60655;52.182;4.474;2023-04-08T04:41:03;102459.31;;;8.29;89.26
72612;BME280;60655;52.182;4.474;2023-04-08T04:43:04;102466.50;;;8.37;89.50
72612;BME280;60655;52.182;4.474;2023-04-08T04:45:05;102469.97;;;8.45;89.97
72612;BME280;60655;52.182;4.474;2023-04-08T04:47:06;102460.38;;;8.44;90.41
72612;BME280;60655;52.182;4.474;2023-04-08T04:49:07;102473.34;;;8.64;90.90
72612;BME280;60655;52.182;4.474;2023-04-08T04:51:08;102466.50;;;8.45;90.59
72612;BME280;60655;52.182;4.474;2023-04-08T04:53:08;102479.25;;;8.50;91.59
72612;BME280;60655;52.182;4.474;2023-04-08T04:55:12;102479.25;;;8.50;91.85
72612;BME280;60655;52.182;4.474;2023-04-08T04:57:13;102477.94;;;8.54;92.07
72612;BME280;60655;52.182;4.474;2023-04-08T04:59:13;102482.25;;;8.55;92.03
72612;BME280;60655;52.182;4.474;2023-04-08T05:01:14;102480.78;;;8.68;91.76
72612;BME280;60655;52.182;4.474;2023-04-08T05:03:15;102480.78;;;8.60;91.85
72612;BME280;60655;52.182;4.474;2023-04-08T05:05:16;102483.59;;;8.67;91.28
72612;BME280;60655;52.182;4.474;2023-04-08T05:07:17;102486.59;;;8.64;91.48
72612;BME280;60655;52.182;4.474;2023-04-08T05:09:18;102481.75;;;8.67;91.90
72612;BME280;60655;52.182;4.474;2023-04-08T05:11:19;102479.28;;;8.58;91.65
72612;BME280;60655;52.182;4.474;2023-04-08T05:13:21;102489.88;;;8.58;91.88
72612;BME280;60655;52.182;4.474;2023-04-08T05:15:22;102489.03;;;8.49;92.06
72612;BME280;60655;52.182;4.474;2023-04-08T05:17:23;102495.19;;;8.58;92.16
72612;BME280;60655;52.182;4.474;2023-04-08T05:19:24;102488.34;;;8.47;92.58
72612;BME280;60655;52.182;4.474;2023-04-08T05:21:24;102495.53;;;8.63;92.40
72612;BME280;60655;52.182;4.474;2023-04-08T05:23:28;102493.88;;;8.62;92.09
72612;BME280;60655;52.182;4.474;2023-04-08T05:25:29;102490.69;;;8.50;92.03
72612;BME280;60655;52.182;4.474;2023-04-08T05:27:30;102500.81;;;8.63;91.96
72612;BME280;60655;52.182;4.474;2023-04-08T05:29:31;102497.03;;;8.65;91.91
72612;BME280;60655;52.182;4.474;2023-04-08T05:31:32;102493.53;;;8.57;91.67
72612;BME280;60655;52.182;4.474;2023-04-08T05:33:33;102503.47;;;8.63;91.94
72612;BME280;60655;52.182;4.474;2023-04-08T05:35:34;102505.63;;;8.59;91.50
72612;BME280;60655;52.182;4.474;2023-04-08T05:37:35;102502.63;;;8.62;91.29
72612;BME280;60655;52.182;4.474;2023-04-08T05:39:38;102501.47;;;8.57;90.80
72612;BME280;60655;52.182;4.474;2023-04-08T05:41:39;102512.66;;;8.34;90.18
72612;BME280;60655;52.182;4.474;2023-04-08T05:43:41;102524.47;;;8.22;91.64
72612;BME280;60655;52.182;4.474;2023-04-08T05:45:41;102510.56;;;8.20;90.33
72612;BME280;60655;52.182;4.474;2023-04-08T05:47:42;102517.00;;;8.18;91.20
72612;BME280;60655;52.182;4.474;2023-04-08T05:49:43;102523.50;;;8.23;91.41
72612;BME280;60655;52.182;4.474;2023-04-08T05:51:44;102524.09;;;8.35;91.59
72612;BME280;60655;52.182;4.474;2023-04-08T05:53:45;102524.56;;;8.38;91.44
72612;BME280;60655;52.182;4.474;2023-04-08T05:55:46;102523.09;;;8.36;91.41
72612;BME280;60655;52.182;4.474;2023-04-08T05:57:47;102530.22;;;8.35;92.01
72612;BME280;60655;52.182;4.474;2023-04-08T05:59:48;102532.69;;;8.45;91.51
72612;BME280;60655;52.182;4.474;2023-04-08T06:01:49;102529.53;;;8.41;91.59
72612;BME280;60655;52.182;4.474;2023-04-08T06:03:50;102534.25;;;8.22;89.64
72612;BME280;60655;52.182;4.474;2023-04-08T06:05:52;102534.16;;;8.39;91.08
72612;BME280;60655;52.182;4.474;2023-04-08T06:07:53;102533.53;;;8.45;91.24
72612;BME280;60655;52.182;4.474;2023-04-08T06:09:54;102541.63;;;8.44;91.39
72612;BME280;60655;52.182;4.474;2023-04-08T06:11:55;102544.28;;;8.44;90.32
72612;BME280;60655;52.182;4.474;2023-04-08T06:13:57;102532.19;;;8.33;91.09
72612;BME280;60655;52.182;4.474;2023-04-08T06:15:58;102546.25;;;8.34;90.60
72612;BME280;60655;52.182;4.474;2023-04-08T06:17:59;102547.75;;;8.44;90.88
72612;BME280;60655;52.182;4.474;2023-04-08T06:20:00;102549.78;;;8.51;90.20
72612;BME280;60655;52.182;4.474;2023-04-08T06:22:01;102546.09;;;8.35;90.46
72612;BME280;60655;52.182;4.474;2023-04-08T06:24:01;102553.22;;;8.43;90.40
72612;BME280;60655;52.182;4.474;2023-04-08T06:26:02;102551.41;;;8.43;90.49
72612;BME280;60655;52.182;4.474;2023-04-08T06:28:04;102558.00;;;8.39;90.36
72612;BME280;60655;52.182;4.474;2023-04-08T06:30:05;102558.84;;;8.40;90.51
72612;BME280;60655;52.182;4.474;2023-04-08T06:32:06;102533.78;;;8.26;89.89
72612;BME280;60655;52.182;4.474;2023-04-08T06:34:07;102562.56;;;8.29;90.45
72612;BME280;60655;52.182;4.474;2023-04-08T06:36:08;102529.88;;;8.12;91.04
72612;BME280;60655;52.182;4.474;2023-04-08T06:38:09;102559.41;;;8.26;91.27
72612;BME280;60655;52.182;4.474;2023-04-08T06:40:10;102567.91;;;8.37;91.58
72612;BME280;60655;52.182;4.474;2023-04-08T06:42:11;102571.09;;;8.41;91.26
72612;BME280;60655;52.182;4.474;2023-04-08T06:44:11;102563.41;;;8.30;91.40
72612;BME280;60655;52.182;4.474;2023-04-08T06:46:12;102579.38;;;8.46;91.62
72612;BME280;60655;52.182;4.474;2023-04-08T06:48:13;102575.94;;;8.54;91.16
72612;BME280;60655;52.182;4.474;2023-04-08T06:50:14;102585.00;;;8.43;91.53
72612;BME280;60655;52.182;4.474;2023-04-08T06:52:17;102587.97;;;8.40;91.27
72612;BME280;60655;52.182;4.474;2023-04-08T06:54:18;102588.78;;;8.32;90.86
72612;BME280;60655;52.182;4.474;2023-04-08T06:56:19;102583.50;;;8.40;91.25
72612;BME280;60655;52.182;4.474;2023-04-08T06:58:22;102591.59;;;8.39;90.70
72612;BME280;60655;52.182;4.474;2023-04-08T07:00:22;102597.56;;;8.41;91.67
72612;BME280;60655;52.182;4.474;2023-04-08T07:02:23;102596.63;;;8.24;91.12
72612;BME280;60655;52.182;4.474;2023-04-08T07:04:25;102599.38;;;8.40;91.64
72612;BME280;60655;52.182;4.474;2023-04-08T07:06:26;102586.66;;;8.44;91.30
72612;BME280;60655;52.182;4.474;2023-04-08T07:08:27;102609.31;;;8.38;90.06
72612;BME280;60655;52.182;4.474;2023-04-08T07:10:28;102616.09;;;8.33;91.34
72612;BME280;60655;52.182;4.474;2023-04-08T07:12:29;102614.44;;;8.40;90.80
72612;BME280;60655;52.182;4.474;2023-04-08T07:14:30;102618.75;;;8.41;90.85
72612;BME280;60655;52.182;4.474;2023-04-08T07:16:31;102624.72;;;8.43;90.89
72612;BME280;60655;52.182;4.474;2023-04-08T07:18:32;102625.88;;;8.40;91.06
72612;BME280;60655;52.182;4.474;2023-04-08T07:20:32;102626.53;;;8.17;90.62
72612;BME280;60655;52.182;4.474;2023-04-08T07:22:37;102596.75;;;8.14;91.62
72612;BME280;60655;52.182;4.474;2023-04-08T07:24:39;102625.72;;;8.42;91.54
72612;BME280;60655;52.182;4.474;2023-04-08T07:26:42;102594.34;;;8.29;91.46
72612;BME280;60655;52.182;4.474;2023-04-08T07:28:43;102623.97;;;8.59;90.95
72612;BME280;60655;52.182;4.474;2023-04-08T07:30:44;102622.16;;;8.59;90.50
72612;BME280;60655;52.182;4.474;2023-04-08T07:32:45;102633.38;;;8.53;90.26
72612;BME280;60655;52.182;4.474;2023-04-08T07:34:46;102624.13;;;8.57;90.48
72612;BME280;60655;52.182;4.474;2023-04-08T07:36:48;102632.19;;;8.48;90.25
72612;BME280;60655;52.182;4.474;2023-04-08T07:38:48;102628.72;;;8.47;90.39
72612;BME280;60655;52.182;4.474;2023-04-08T07:40:49;102633.97;;;8.39;89.62
72612;BME280;60655;52.182;4.474;2023-04-08T07:42:51;102631.53;;;8.45;90.20
72612;BME280;60655;52.182;4.474;2023-04-08T07:44:52;102626.75;;;8.49;89.64
72612;BME280;60655;52.182;4.474;2023-04-08T07:46:53;102636.31;;;8.42;88.82
72612;BME280;60655;52.182;4.474;2023-04-08T07:48:54;102627.25;;;8.53;90.12
72612;BME280;60655;52.182;4.474;2023-04-08T07:50:55;102638.13;;;8.41;89.52
72612;BME280;60655;52.182;4.474;2023-04-08T07:52:56;102635.44;;;8.67;89.84
72612;BME280;60655;52.182;4.474;2023-04-08T07:54:57;102630.53;;;8.80;90.06
72612;BME280;60655;52.182;4.474;2023-04-08T07:56:59;102636.09;;;8.69;89.13
72612;BME280;60655;52.182;4.474;2023-04-08T07:59:00;102630.47;;;8.72;90.57
72612;BME280;60655;52.182;4.474;2023-04-08T08:01:01;102635.53;;;8.92;90.14
72612;BME280;60655;52.182;4.474;2023-04-08T08:03:02;102635.56;;;9.08;89.58
72612;BME280;60655;52.182;4.474;2023-04-08T08:05:03;102638.38;;;9.06;89.36
72612;BME280;60655;52.182;4.474;2023-04-08T08:07:04;102638.22;;;9.08;88.91
72612;BME280;60655;52.182;4.474;2023-04-08T08:09:05;102639.59;;;9.28;87.93
72612;BME280;60655;52.182;4.474;2023-04-08T08:11:06;102649.38;;;9.36;86.68
72612;BME280;60655;52.182;4.474;2023-04-08T08:13:07;102644.22;;;9.26;86.69
72612;BME280;60655;52.182;4.474;2023-04-08T08:15:09;102641.56;;;9.18;86.66
72612;BME280;60655;52.182;4.474;2023-04-08T08:17:10;102643.59;;;9.40;86.03
72612;BME280;60655;52.182;4.474;2023-04-08T08:19:12;102650.75;;;9.48;86.08
72612;BME280;60655;52.182;4.474;2023-04-08T08:21:14;102658.34;;;9.43;86.14
72612;BME280;60655;52.182;4.474;2023-04-08T08:23:15;102651.03;;;9.37;85.99
72612;BME280;60655;52.182;4.474;2023-04-08T08:25:16;102657.84;;;9.39;84.96
72612;BME280;60655;52.182;4.474;2023-04-08T08:27:17;102658.88;;;9.63;86.07
72612;BME280;60655;52.182;4.474;2023-04-08T08:29:18;102633.66;;;9.59;85.24
72612;BME280;60655;52.182;4.474;2023-04-08T08:31:19;102657.03;;;9.63;85.17
72612;BME280;60655;52.182;4.474;2023-04-08T08:33:20;102663.34;;;9.87;85.32
72612;BME280;60655;52.182;4.474;2023-04-08T08:35:21;102663.03;;;9.73;83.90
72612;BME280;60655;52.182;4.474;2023-04-08T08:37:22;102657.88;;;9.72;84.90
72612;BME280;60655;52.182;4.474;2023-04-08T08:39:23;102659.19;;;9.68;84.03
72612;BME280;60655;52.182;4.474;2023-04-08T08:41:24;102670.50;;;9.78;84.49
72612;BME280;60655;52.182;4.474;2023-04-08T08:43:26;102668.50;;;10.04;84.19
72612;BME280;60655;52.182;4.474;2023-04-08T08:45:28;102647.25;;;9.96;83.00
72612;BME280;60655;52.182;4.474;2023-04-08T08:47:29;102672.81;;;9.97;82.63
72612;BME280;60655;52.182;4.474;2023-04-08T08:49:30;102639.28;;;9.88;83.04
72612;BME280;60655;52.182;4.474;2023-04-08T08:51:31;102678.09;;;10.30;83.08
72612;BME280;60655;52.182;4.474;2023-04-08T08:53:35;102673.63;;;10.30;82.49
72612;BME280;60655;52.182;4.474;2023-04-08T08:55:36;102675.44;;;10.22;82.64
72612;BME280;60655;52.182;4.474;2023-04-08T08:57:40;102669.97;;;10.31;82.16
72612;BME280;60655;52.182;4.474;2023-04-08T08:59:41;102676.91;;;10.40;81.36
72612;BME280;60655;52.182;4.474;2023-04-08T09:01:43;102674.13;;;10.26;81.17
72612;BME280;60655;52.182;4.474;2023-04-08T09:03:44;102658.13;;;10.42;81.78
72612;BME280;60655;52.182;4.474;2023-04-08T09:05:58;102655.94;;;10.54;81.79
72612;BME280;60655;52.182;4.474;2023-04-08T09:07:59;102667.41;;;10.62;81.83
72612;BME280;60655;52.182;4.474;2023-04-08T09:10:00;102656.88;;;10.69;81.15
72612;BME280;60655;52.182;4.474;2023-04-08T09:12:02;102656.28;;;10.59;81.14
72612;BME280;60655;52.182;4.474;2023-04-08T09:14:04;102664.22;;;10.67;81.63
72612;BME280;60655;52.182;4.474;2023-04-08T09:16:11;102657.03;;;10.75;81.14
72612;BME280;60655;52.182;4.474;2023-04-08T09:18:23;102659.38;;;10.70;80.31
72612;BME280;60655;52.182;4.474;2023-04-08T09:20:24;102663.59;;;10.96;80.10
72612;BME280;60655;52.182;4.474;2023-04-08T09:22:25;102661.94;;;10.95;79.71
72612;BME280;60655;52.182;4.474;2023-04-08T09:24:28;102662.28;;;10.92;79.34
72612;BME280;60655;52.182;4.474;2023-04-08T09:26:30;102669.84;;;11.11;79.16
72612;BME280;60655;52.182;4.474;2023-04-08T09:28:30;102666.16;;;11.12;79.06
72612;BME280;60655;52.182;4.474;2023-04-08T09:30:32;102669.19;;;11.09;76.94
72612;BME280;60655;52.182;4.474;2023-04-08T09:32:49;102663.19;;;11.07;76.55
72612;BME280;60655;52.182;4.474;2023-04-08T09:34:50;102665.59;;;11.25;76.83
72612;BME280;60655;52.182;4.474;2023-04-08T09:36:52;102658.53;;;11.09;76.61
72612;BME280;60655;52.182;4.474;2023-04-08T09:38:54;102668.44;;;11.23;76.96
72612;BME280;60655;52.182;4.474;2023-04-08T09:40:55;102667.25;;;11.26;76.79
72612;BME280;60655;52.182;4.474;2023-04-08T09:42:59;102660.16;;;11.41;75.00
72612;BME280;60655;52.182;4.474;2023-04-08T09:45:03;102665.00;;;11.37;75.79
72612;BME280;60655;52.182;4.474;2023-04-08T09:47:14;102663.00;;;11.39;75.57
72612;BME280;60655;52.182;4.474;2023-04-08T09:49:25;102674.59;;;11.46;75.75
72612;BME280;60655;52.182;4.474;2023-04-08T09:51:39;102660.94;;;11.49;75.29
72612;BME280;60655;52.182;4.474;2023-04-08T09:53:46;102669.09;;;11.71;75.99
72612;BME280;60655;52.182;4.474;2023-04-08T09:55:50;102663.78;;;11.71;75.70
72612;BME280;60655;52.182;4.474;2023-04-08T09:58:03;102665.44;;;11.72;74.17
72612;BME280;60655;52.182;4.474;2023-04-08T10:00:10;102668.09;;;11.72;73.28
72612;BME280;60655;52.182;4.474;2023-04-08T10:02:16;102665.75;;;11.77;73.66
72612;BME280;60655;52.182;4.474;2023-04-08T10:04:22;102672.22;;;11.82;73.92
72612;BME280;60655;52.182;4.474;2023-04-08T10:06:27;102677.97;;;11.86;72.40
72612;BME280;60655;52.182;4.474;2023-04-08T10:08:29;102670.03;;;12.01;71.05
72612;BME280;60655;52.182;4.474;2023-04-08T10:10:33;102663.41;;;11.97;72.08
72612;BME280;60655;52.182;4.474;2023-04-08T10:12:37;102671.81;;;12.23;72.95
72612;BME280;60655;52.182;4.474;2023-04-08T10:14:38;102664.75;;;12.30;73.02
72612;BME280;60655;52.182;4.474;2023-04-08T10:16:39;102661.72;;;12.33;71.95
72612;BME280;60655;52.182;4.474;2023-04-08T10:18:40;102659.53;;;12.37;69.59
72612;BME280;60655;52.182;4.474;2023-04-08T10:20:46;102665.59;;;12.31;69.54
72612;BME280;60655;52.182;4.474;2023-04-08T10:22:48;102659.06;;;12.33;70.34
72612;BME280;60655;52.182;4.474;2023-04-08T10:27:38;102661.56;;;12.64;68.97
72612;BME280;60655;52.182;4.474;2023-04-08T10:29:40;102667.06;;;12.63;68.02
72612;BME280;60655;52.182;4.474;2023-04-08T10:31:46;102669.00;;;12.69;67.61
72612;BME280;60655;52.182;4.474;2023-04-08T10:33:47;102670.47;;;12.57;66.99
72612;BME280;60655;52.182;4.474;2023-04-08T10:38:15;102659.03;;;12.77;66.59
72612;BME280;60655;52.182;4.474;2023-04-08T10:40:20;102661.16;;;12.97;64.77
72612;BME280;60655;52.182;4.474;2023-04-08T10:42:26;102657.19;;;12.93;64.01
72612;BME280;60655;52.182;4.474;2023-04-08T10:44:27;102651.84;;;12.93;61.75
72612;BME280;60655;52.182;4.474;2023-04-08T10:46:28;102659.34;;;13.04;60.02
72612;BME280;60655;52.182;4.474;2023-04-08T10:48:29;102659.00;;;13.22;58.42
72612;BME280;60655;52.182;4.474;2023-04-08T10:50:30;102656.50;;;13.20;59.03
72612;BME280;60655;52.182;4.474;2023-04-08T10:52:32;102657.91;;;13.16;58.82